Time;durP1;ratioP1;P1;durP2;ratioP2;P2;SDS_P1;SDS_P2;PMS_P1;PMS_P2;Temp;Humidity;BMP_temperature;BMP_pressure;BME280_temperature;BME280_humidity;BME280_pressure;Samples;Min_cycle;Max_cycle;Signal;HPM_P1;HPM_P2
2023/01/08 00:01:10;;;;;;;2.13;1.92;;;9.00;99.90;;;;;;5026001;28;20179;-63
2023/01/08 00:03:36;;;;;;;1.75;1.63;;;9.00;99.90;;;;;;5047514;28;20043;-63
2023/01/08 00:06:04;;;;;;;3.92;2.63;;;9.00;99.90;;;;;;5047771;28;20029;-63
2023/01/08 00:08:31;;;;;;;3.60;2.13;;;9.00;99.90;;;;;;5043449;28;20044;-63
2023/01/08 00:10:57;;;;;;;1.95;1.77;;;9.10;99.90;;;;;;5029694;28;20052;-63
2023/01/08 00:13:23;;;;;;;2.55;1.98;;;9.10;99.90;;;;;;5048256;28;20119;-63
2023/01/08 00:15:49;;;;;;;2.80;1.73;;;9.10;99.90;;;;;;5047100;28;20168;-63
2023/01/08 00:18:15;;;;;;;3.30;2.00;;;9.10;99.90;;;;;;5026212;28;20121;-63
2023/01/08 00:20:42;;;;;;;3.70;2.20;;;9.10;99.90;;;;;;5041574;28;20586;-63
2023/01/08 00:23:16;;;;;;;1.40;1.25;;;9.10;99.90;;;;;;5047838;28;20161;-63
2023/01/08 00:25:41;;;;;;;1.70;1.60;;;9.00;99.90;;;;;;5047769;28;20526;-63
2023/01/08 00:28:08;;;;;;;2.88;2.30;;;9.00;99.90;;;;;;5047266;28;20037;-63
2023/01/08 00:30:34;;;;;;;2.38;2.10;;;9.00;99.90;;;;;;5047218;28;20052;-63
2023/01/08 00:33:00;;;;;;;1.30;1.10;;;9.00;99.90;;;;;;5046182;28;20041;-63
2023/01/08 00:35:26;;;;;;;3.97;2.35;;;9.00;99.90;;;;;;5048375;28;20407;-63
2023/01/08 00:37:52;;;;;;;1.98;1.88;;;9.00;99.90;;;;;;5047201;28;20053;-63
2023/01/08 00:40:18;;;;;;;3.22;2.20;;;9.00;99.90;;;;;;5025642;28;20057;-63
2023/01/08 00:42:44;;;;;;;3.40;1.92;;;9.00;99.90;;;;;;5029391;28;20055;-63
2023/01/08 00:45:10;;;;;;;3.15;2.33;;;9.00;99.90;;;;;;5028990;28;20037;-63
2023/01/08 00:47:36;;;;;;;3.00;2.20;;;9.00;99.90;;;;;;5047194;28;20507;-63
2023/01/08 00:50:03;;;;;;;3.05;1.98;;;9.00;99.90;;;;;;5045201;28;20057;-63
2023/01/08 00:52:28;;;;;;;8.32;2.20;;;9.00;99.90;;;;;;5029868;28;20078;-63
2023/01/08 00:54:54;;;;;;;2.38;2.13;;;9.00;99.90;;;;;;5046434;28;20045;-63
2023/01/08 00:57:20;;;;;;;3.20;2.22;;;9.00;99.90;;;;;;5047599;28;20099;-63
2023/01/08 00:59:46;;;;;;;2.80;1.75;;;9.00;99.90;;;;;;5046241;28;20056;-64
2023/01/08 01:02:11;;;;;;;5.28;2.15;;;9.10;99.90;;;;;;5030868;28;20096;-63
2023/01/08 01:04:37;;;;;;;2.97;1.98;;;9.10;99.90;;;;;;5045186;28;20041;-63
2023/01/08 01:07:03;;;;;;;3.63;2.08;;;9.10;99.90;;;;;;5032044;28;20095;-63
2023/01/08 01:09:29;;;;;;;3.80;2.17;;;9.10;99.90;;;;;;5044151;28;20038;-63
2023/01/08 01:11:55;;;;;;;4.45;1.73;;;9.10;99.90;;;;;;5036363;28;20072;-63
2023/01/08 01:14:21;;;;;;;2.10;1.33;;;9.10;99.90;;;;;;5041295;28;20061;-63
2023/01/08 01:16:47;;;;;;;6.22;2.38;;;9.10;99.90;;;;;;5039737;28;20043;-64
2023/01/08 01:19:17;;;;;;;5.20;1.80;;;9.10;99.90;;;;;;5045501;28;20089;-63
2023/01/08 01:21:43;;;;;;;5.07;2.50;;;9.10;99.90;;;;;;5043593;28;20099;-64
2023/01/08 01:24:10;;;;;;;2.63;1.77;;;9.10;99.90;;;;;;5046050;28;20045;-63
2023/01/08 01:26:36;;;;;;;4.35;1.20;;;9.20;99.90;;;;;;5011441;28;20525;-63
2023/01/08 01:29:02;;;;;;;1.90;1.70;;;9.20;99.90;;;;;;5028462;28;20049;-63
2023/01/08 01:31:30;;;;;;;3.63;2.10;;;9.20;99.90;;;;;;5046706;28;20503;-64
2023/01/08 01:33:55;;;;;;;2.30;1.80;;;9.20;99.90;;;;;;5046448;28;20049;-63
2023/01/08 01:36:22;;;;;;;6.90;2.20;;;9.20;99.90;;;;;;5041606;28;20052;-63
2023/01/08 01:38:51;;;;;;;2.55;1.60;;;9.20;99.90;;;;;;5036330;28;20041;-63
2023/01/08 01:41:30;;;;;;;1.25;1.15;;;9.20;99.90;;;;;;5046589;28;20041;-63
2023/01/08 01:43:58;;;;;;;2.88;1.92;;;9.30;99.90;;;;;;5015325;28;20048;-63
2023/01/08 01:46:50;;;;;;;3.97;1.80;;;9.30;99.90;;;;;;5034993;28;20053;-63
2023/01/08 01:49:21;;;;;;;3.08;1.63;;;9.20;99.90;;;;;;5030450;28;20049;-63
2023/01/08 01:51:51;;;;;;;2.67;1.23;;;9.20;99.90;;;;;;5046168;28;20049;-63
2023/01/08 01:54:17;;;;;;;1.80;1.42;;;9.20;99.90;;;;;;5046245;28;20045;-63
2023/01/08 01:56:44;;;;;;;3.75;1.85;;;9.10;99.90;;;;;;5039635;28;20383;-63
2023/01/08 01:59:11;;;;;;;1.90;1.52;;;9.10;99.90;;;;;;5045607;28;20057;-63
2023/01/08 02:01:37;;;;;;;2.30;1.80;;;9.10;99.90;;;;;;5039967;28;20483;-63
2023/01/08 02:04:03;;;;;;;2.10;1.80;;;9.10;99.90;;;;;;5044172;28;20395;-63
2023/01/08 02:06:41;;;;;;;2.03;1.88;;;9.10;99.90;;;;;;5027811;28;20099;-63
2023/01/08 02:09:45;;;;;;;2.83;1.48;;;9.10;99.90;;;;;;5041349;28;20041;-63
2023/01/08 02:12:19;;;;;;;3.67;2.08;;;9.10;99.90;;;;;;5011060;28;20057;-63
2023/01/08 02:15:18;;;;;;;3.90;1.90;;;9.10;99.90;;;;;;5046218;28;20037;-63
2023/01/08 02:17:49;;;;;;;2.40;1.50;;;9.20;99.90;;;;;;5038894;28;20379;-63
2023/01/08 02:20:30;;;;;;;2.63;1.20;;;9.10;99.90;;;;;;5050113;28;20830;-63
2023/01/08 02:23:09;;;;;;;4.25;1.65;;;9.20;99.90;;;;;;5050111;28;20044;-63
2023/01/08 02:26:13;;;;;;;4.90;1.75;;;9.20;99.90;;;;;;5032110;28;20060;-63
2023/01/08 02:28:48;;;;;;;2.25;1.48;;;9.20;99.90;;;;;;5005377;28;20057;-63
2023/01/08 02:31:16;;;;;;;5.35;1.73;;;9.20;99.90;;;;;;5048960;28;20560;-63
2023/01/08 02:33:42;;;;;;;3.63;2.20;;;9.20;99.90;;;;;;5049835;28;20156;-63
2023/01/08 02:36:26;;;;;;;4.18;1.38;;;9.20;99.90;;;;;;5031826;28;20135;-63
2023/01/08 02:39:03;;;;;;;1.77;1.50;;;9.10;99.90;;;;;;5049707;28;20055;-63
2023/01/08 02:41:47;;;;;;;5.50;1.70;;;9.10;99.90;;;;;;5037866;28;20037;-63
2023/01/08 02:44:20;;;;;;;4.90;1.23;;;9.10;99.90;;;;;;5031873;28;20573;-64
2023/01/08 02:46:49;;;;;;;6.63;1.65;;;9.00;99.90;;;;;;5031110;28;20100;-64
2023/01/08 02:49:17;;;;;;;5.82;1.35;;;9.00;99.90;;;;;;5027691;28;20570;-63
2023/01/08 02:51:49;;;;;;;5.57;1.35;;;8.90;99.90;;;;;;5049425;28;20055;-63
2023/01/08 02:54:20;;;;;;;4.95;1.30;;;9.00;99.90;;;;;;5049949;28;20036;-63
2023/01/08 02:56:52;;;;;;;9.82;1.35;;;9.00;99.90;;;;;;5049662;28;20079;-63
2023/01/08 02:59:19;;;;;;;2.42;0.85;;;9.00;99.90;;;;;;5044543;28;20048;-63
2023/01/08 03:01:46;;;;;;;9.68;1.45;;;9.00;99.90;;;;;;5039395;28;20081;-63
2023/01/08 03:04:21;;;;;;;5.32;0.90;;;8.90;99.90;;;;;;5048991;28;20052;-63
2023/01/08 03:06:47;;;;;;;7.40;1.20;;;8.90;99.90;;;;;;5046457;28;20041;-63
2023/01/08 03:09:14;;;;;;;7.22;1.67;;;8.90;99.90;;;;;;5014713;28;20061;-64
2023/01/08 03:11:53;;;;;;;8.88;1.30;;;8.90;99.90;;;;;;5041572;28;20391;-63
2023/01/08 03:14:26;;;;;;;8.98;1.50;;;8.80;99.90;;;;;;5046698;28;20044;-63
2023/01/08 03:17:28;;;;;;;14.15;1.80;;;8.80;99.90;;;;;;5048733;28;20053;-63
2023/01/08 03:19:58;;;;;;;9.85;1.10;;;8.80;99.90;;;;;;5027016;28;20053;-63
2023/01/08 03:22:24;;;;;;;;;;;8.70;99.90;;;;;;5039872;28;20684;-64
2023/01/08 03:24:53;;;;;;;13.43;1.75;;;8.70;99.90;;;;;;5031135;28;19974;-63
2023/01/08 03:27:26;;;;;;;7.22;1.27;;;8.60;99.90;;;;;;5031282;28;20080;-63
2023/01/08 03:29:57;;;;;;;8.40;1.83;;;8.60;99.90;;;;;;5047347;28;20053;-63
2023/01/08 03:32:24;;;;;;;12.45;1.65;;;8.60;99.90;;;;;;5047807;28;20094;-63
2023/01/08 03:34:53;;;;;;;6.78;1.33;;;8.50;99.90;;;;;;5048483;28;20124;-63
2023/01/08 03:37:26;;;;;;;13.20;2.03;;;8.50;99.90;;;;;;5048618;28;20052;-63
2023/01/08 03:40:05;;;;;;;8.95;1.40;;;8.50;99.90;;;;;;5048662;28;20551;-63
2023/01/08 03:42:31;;;;;;;7.63;1.50;;;8.50;99.90;;;;;;5012838;28;20136;-63
2023/01/08 03:44:59;;;;;;;8.02;2.03;;;8.50;99.90;;;;;;5048315;28;20033;-63
2023/01/08 03:47:29;;;;;;;10.52;1.83;;;8.50;99.90;;;;;;5046457;28;20127;-63
2023/01/08 03:50:00;;;;;;;8.65;1.70;;;8.50;99.90;;;;;;5027266;28;20056;-63
2023/01/08 03:52:30;;;;;;;15.18;2.22;;;8.40;99.90;;;;;;5048732;28;20049;-63
2023/01/08 03:54:56;;;;;;;13.27;2.20;;;8.50;99.90;;;;;;5048035;28;20067;-63
2023/01/08 03:57:22;;;;;;;12.18;1.88;;;8.40;99.90;;;;;;5030275;28;20057;-63
2023/01/08 03:59:48;;;;;;;6.53;1.58;;;8.40;99.90;;;;;;5043559;28;20056;-63
2023/01/08 04:02:14;;;;;;;12.43;2.75;;;8.50;99.90;;;;;;5042125;28;20053;-64
2023/01/08 04:04:40;;;;;;;13.25;1.83;;;8.40;99.90;;;;;;5030246;28;20088;-64
2023/01/08 04:07:06;;;;;;;12.55;2.00;;;8.40;99.90;;;;;;5030223;28;20514;-63
2023/01/08 04:09:32;;;;;;;14.10;1.85;;;8.40;99.90;;;;;;5046045;28;20098;-63
2023/01/08 04:11:58;;;;;;;12.88;2.10;;;8.30;99.90;;;;;;5047945;28;20040;-63
2023/01/08 04:14:24;;;;;;;7.35;1.77;;;8.20;99.90;;;;;;5048301;28;20505;-63
2023/01/08 04:16:49;;;;;;;13.95;1.60;;;8.20;99.90;;;;;;5047828;28;20111;-63
2023/01/08 04:19:15;;;;;;;18.13;2.10;;;8.20;99.90;;;;;;5044586;28;20044;-63
2023/01/08 04:21:42;;;;;;;9.18;1.52;;;8.10;99.90;;;;;;5047908;28;20581;-63
2023/01/08 04:24:08;;;;;;;10.95;1.70;;;8.10;99.90;;;;;;5047745;28;20055;-63
2023/01/08 04:26:33;;;;;;;7.50;2.03;;;8.10;99.90;;;;;;5048132;28;20468;-63
2023/01/08 04:29:02;;;;;;;9.07;1.52;;;8.00;99.90;;;;;;5013726;28;20131;-63
2023/01/08 04:31:28;;;;;;;9.32;1.70;;;7.90;99.90;;;;;;5013950;28;20053;-63
2023/01/08 04:33:54;;;;;;;10.63;1.55;;;7.90;99.90;;;;;;5038600;28;20494;-63
2023/01/08 04:36:20;;;;;;;11.85;1.40;;;7.90;99.90;;;;;;5047207;28;21078;-63
2023/01/08 04:38:46;;;;;;;7.72;1.48;;;7.90;99.90;;;;;;5047569;28;20484;-63
2023/01/08 04:41:11;;;;;;;8.57;1.83;;;7.90;99.90;;;;;;5021202;28;20061;-63
2023/01/08 04:43:37;;;;;;;5.68;1.80;;;7.90;99.90;;;;;;5047293;28;20448;-63
2023/01/08 04:46:06;;;;;;;6.88;1.60;;;7.90;99.90;;;;;;5047426;28;20055;-63
2023/01/08 04:48:32;;;;;;;10.35;2.22;;;7.90;99.90;;;;;;5046960;28;20522;-63
2023/01/08 04:50:59;;;;;;;9.75;1.80;;;7.90;99.90;;;;;;5047183;28;20443;-63
2023/01/08 04:53:26;;;;;;;5.50;1.77;;;8.00;99.90;;;;;;5028773;28;20045;-63
2023/01/08 04:55:51;;;;;;;7.13;1.63;;;8.00;99.90;;;;;;5029206;28;20041;-63
2023/01/08 04:58:18;;;;;;;6.38;1.77;;;8.00;99.90;;;;;;5028834;28;20029;-64
2023/01/08 05:00:43;;;;;;;2.63;1.48;;;8.00;99.90;;;;;;5047028;28;20060;-63
2023/01/08 05:03:09;;;;;;;4.72;1.67;;;8.00;99.90;;;;;;5023517;28;20041;-63
2023/01/08 05:05:35;;;;;;;10.20;1.80;;;8.00;99.90;;;;;;5029039;28;20037;-63
2023/01/08 05:08:01;;;;;;;7.70;1.77;;;8.00;99.90;;;;;;5047108;28;20525;-63
2023/01/08 05:10:27;;;;;;;7.53;1.50;;;8.10;99.90;;;;;;5028658;28;20045;-63
2023/01/08 05:13:00;;;;;;;4.53;2.00;;;8.20;99.90;;;;;;5046243;28;20049;-63
2023/01/08 05:15:26;;;;;;;3.90;1.63;;;8.20;99.90;;;;;;5046710;28;20052;-63
2023/01/08 05:18:03;;;;;;;4.40;1.92;;;8.30;99.90;;;;;;5046521;28;20045;-63
2023/01/08 05:20:29;;;;;;;4.85;1.33;;;8.30;99.90;;;;;;5047230;28;20049;-63
2023/01/08 05:22:57;;;;;;;3.90;1.60;;;8.40;99.90;;;;;;5027776;28;20087;-63
2023/01/08 05:25:23;;;;;;;6.07;2.15;;;8.40;99.90;;;;;;5046859;28;20053;-63
2023/01/08 05:27:49;;;;;;;3.17;1.45;;;8.40;99.90;;;;;;5028608;28;20060;-63
2023/01/08 05:30:15;;;;;;;3.35;0.82;;;8.50;99.90;;;;;;5046475;28;20053;-62
2023/01/08 05:32:41;;;;;;;5.47;1.20;;;8.50;99.90;;;;;;5043262;28;20067;-63
2023/01/08 05:35:07;;;;;;;2.95;1.00;;;8.60;99.90;;;;;;5046737;28;20040;-63
2023/01/08 05:37:34;;;;;;;4.72;1.88;;;8.60;99.90;;;;;;5046857;28;20032;-63
2023/01/08 05:40:00;;;;;;;7.72;1.60;;;8.60;99.90;;;;;;5041949;28;20334;-63
2023/01/08 05:42:26;;;;;;;3.17;1.25;;;8.60;99.90;;;;;;5046421;28;20048;-63
2023/01/08 05:44:52;;;;;;;6.15;1.20;;;8.60;99.90;;;;;;5023298;28;20052;-63
2023/01/08 05:47:18;;;;;;;5.93;1.48;;;8.60;99.90;;;;;;5028093;28;20045;-63
2023/01/08 05:49:44;;;;;;;6.38;1.50;;;8.60;99.90;;;;;;5046173;28;20112;-63
2023/01/08 05:52:09;;;;;;;2.95;1.27;;;8.50;99.90;;;;;;5046394;28;20048;-63
2023/01/08 05:54:35;;;;;;;3.47;1.20;;;8.50;99.90;;;;;;5048795;28;20047;-63
2023/01/08 05:57:01;;;;;;;2.20;1.17;;;8.50;99.90;;;;;;5049401;28;20052;-63
2023/01/08 05:59:26;;;;;;;6.43;1.30;;;8.40;99.90;;;;;;5050030;28;20059;-63
2023/01/08 06:01:52;;;;;;;3.30;1.20;;;8.50;99.90;;;;;;5026704;28;20049;-63
2023/01/08 06:04:18;;;;;;;4.72;1.38;;;8.40;99.90;;;;;;5050004;28;20407;-63
2023/01/08 06:06:44;;;;;;;1.55;0.70;;;8.40;99.90;;;;;;5050487;28;20053;-63
2023/01/08 06:09:10;;;;;;;4.80;1.15;;;8.40;99.90;;;;;;5039204;28;20128;-63
2023/01/08 06:11:35;;;;;;;3.05;1.30;;;8.30;99.90;;;;;;5005234;28;20049;-63
2023/01/08 06:14:01;;;;;;;2.20;1.40;;;8.30;99.90;;;;;;5050071;28;20049;-63
2023/01/08 06:16:27;;;;;;;3.70;1.33;;;8.20;99.90;;;;;;5050230;28;20037;-63
2023/01/08 06:18:53;;;;;;;5.00;1.55;;;8.30;99.90;;;;;;5024003;28;20063;-64
2023/01/08 06:21:18;;;;;;;3.15;1.20;;;8.30;99.90;;;;;;5011523;28;20049;-63
2023/01/08 06:23:44;;;;;;;2.97;1.52;;;8.30;99.90;;;;;;5041147;28;20045;-63
2023/01/08 06:26:10;;;;;;;6.82;1.63;;;8.20;99.90;;;;;;5050156;28;20124;-63
2023/01/08 06:28:36;;;;;;;2.05;1.13;;;8.20;99.90;;;;;;5048290;28;20753;-63
2023/01/08 06:31:02;;;;;;;4.53;1.17;;;8.20;99.90;;;;;;5043930;28;20111;-63
2023/01/08 06:33:29;;;;;;;3.50;1.40;;;8.10;99.90;;;;;;5049789;28;20393;-63
2023/01/08 06:35:59;;;;;;;7.13;1.50;;;8.10;99.90;;;;;;5049461;28;20057;-63
2023/01/08 06:38:24;;;;;;;4.57;1.33;;;8.10;99.90;;;;;;5028571;28;20484;-63
2023/01/08 06:40:51;;;;;;;4.10;1.02;;;8.10;99.90;;;;;;5024261;28;20099;-63
2023/01/08 06:43:21;;;;;;;8.35;1.40;;;8.10;99.90;;;;;;5047744;28;20059;-63
2023/01/08 06:45:53;;;;;;;7.38;1.33;;;8.10;99.90;;;;;;5048955;28;20053;-63
2023/01/08 06:48:19;;;;;;;3.35;1.25;;;8.10;99.90;;;;;;5046490;28;20045;-63
2023/01/08 06:50:45;;;;;;;8.38;1.65;;;8.10;99.90;;;;;;5022073;28;20613;-63
2023/01/08 06:53:10;;;;;;;7.03;1.48;;;8.10;99.90;;;;;;5046293;28;20033;-63
2023/01/08 06:55:37;;;;;;;4.20;1.10;;;8.10;99.90;;;;;;5047617;28;20483;-62
2023/01/08 06:58:03;;;;;;;4.68;1.33;;;8.20;99.90;;;;;;5047845;28;20497;-63
2023/01/08 07:00:28;;;;;;;6.57;1.40;;;8.20;99.90;;;;;;5048922;28;20411;-63
2023/01/08 07:02:55;;;;;;;4.18;1.52;;;8.30;99.90;;;;;;5044790;28;20060;-63
2023/01/08 07:05:21;;;;;;;5.20;1.70;;;8.30;99.90;;;;;;5029876;28;20483;-63
2023/01/08 07:07:47;;;;;;;3.45;1.35;;;8.30;99.90;;;;;;5031762;28;20052;-63
2023/01/08 07:10:13;;;;;;;3.22;1.40;;;8.30;99.90;;;;;;5049045;28;20049;-63
2023/01/08 07:12:38;;;;;;;3.67;1.67;;;8.30;99.90;;;;;;5035697;28;20372;-63
2023/01/08 07:15:05;;;;;;;5.60;1.48;;;8.30;99.90;;;;;;5049113;28;20037;-63
2023/01/08 07:17:32;;;;;;;6.35;1.50;;;8.20;99.90;;;;;;5048995;28;20048;-63
2023/01/08 07:19:58;;;;;;;5.18;1.58;;;8.20;99.90;;;;;;5030153;28;20067;-63
2023/01/08 07:22:24;;;;;;;7.47;1.90;;;8.20;99.90;;;;;;5037718;28;20051;-63
2023/01/08 07:24:51;;;;;;;4.07;2.03;;;8.10;99.90;;;;;;5035037;28;20129;-63
2023/01/08 07:27:17;;;;;;;3.90;1.55;;;8.10;99.90;;;;;;5031403;28;20060;-63
2023/01/08 07:29:43;;;;;;;4.90;1.90;;;8.10;99.90;;;;;;5030789;28;20040;-63
2023/01/08 07:32:09;;;;;;;4.05;1.60;;;8.10;99.90;;;;;;5028637;28;20032;-62
2023/01/08 07:34:35;;;;;;;4.07;1.60;;;8.10;99.90;;;;;;5026073;28;20063;-63
2023/01/08 07:37:02;;;;;;;6.40;1.88;;;8.00;99.90;;;;;;5044792;28;20059;-63
2023/01/08 07:39:28;;;;;;;3.47;1.60;;;8.00;99.90;;;;;;5046750;28;20041;-63
2023/01/08 07:41:53;;;;;;;7.60;1.60;;;7.90;99.90;;;;;;5046761;28;20475;-63
2023/01/08 07:44:19;;;;;;;6.75;2.85;;;7.90;99.90;;;;;;5046220;28;20041;-63
2023/01/08 07:46:45;;;;;;;7.53;1.70;;;7.90;99.90;;;;;;5022769;28;20427;-63
2023/01/08 07:49:11;;;;;;;5.07;1.20;;;7.80;99.90;;;;;;5018593;28;20038;-63
2023/01/08 07:51:37;;;;;;;11.50;1.77;;;7.80;99.90;;;;;;5044632;28;20530;-63
2023/01/08 07:54:03;;;;;;;4.57;1.58;;;7.70;99.90;;;;;;5048398;28;20075;-63
2023/01/08 07:56:28;;;;;;;8.23;1.38;;;7.80;99.90;;;;;;5048224;28;20049;-63
2023/01/08 07:58:54;;;;;;;8.45;1.58;;;7.70;99.90;;;;;;5041027;28;20049;-63
2023/01/08 08:01:20;;;;;;;5.97;1.67;;;7.70;99.90;;;;;;5039494;28;20049;-63
2023/01/08 08:03:46;;;;;;;8.50;1.50;;;7.70;99.90;;;;;;5027063;28;20044;-63
2023/01/08 08:06:12;;;;;;;8.70;1.40;;;7.70;99.90;;;;;;5040690;28;20083;-63
2023/01/08 08:08:38;;;;;;;4.70;1.83;;;7.70;99.90;;;;;;5046797;28;20037;-62
2023/01/08 08:11:03;;;;;;;7.13;1.48;;;7.70;99.90;;;;;;5046845;28;20099;-63
2023/01/08 08:13:29;;;;;;;8.70;1.40;;;7.70;99.90;;;;;;5047801;28;20468;-63
2023/01/08 08:16:03;;;;;;;4.55;1.30;;;7.80;99.90;;;;;;5046171;28;20041;-63
2023/01/08 08:18:29;;;;;;;6.15;1.60;;;7.80;99.90;;;;;;5048024;28;20084;-63
2023/01/08 08:20:56;;;;;;;8.05;1.60;;;7.80;99.90;;;;;;5028755;28;20071;-63
2023/01/08 08:23:22;;;;;;;4.57;1.73;;;7.80;99.90;;;;;;5028677;28;20085;-63
2023/01/08 08:25:48;;;;;;;6.45;2.03;;;7.80;99.90;;;;;;5046453;28;20523;-63
2023/01/08 08:28:14;;;;;;;8.95;2.67;;;7.80;99.90;;;;;;5047090;28;20048;-63
2023/01/08 08:30:39;;;;;;;14.38;3.40;;;7.80;99.90;;;;;;5046979;28;20090;-63
2023/01/08 08:33:06;;;;;;;7.05;2.60;;;7.80;99.90;;;;;;5008896;28;20132;-63
2023/01/08 08:35:33;;;;;;;10.18;2.92;;;7.80;99.90;;;;;;5047141;28;20053;-63
2023/01/08 08:38:04;;;;;;;8.00;2.95;;;7.80;99.90;;;;;;5028661;28;20040;-63
2023/01/08 08:40:30;;;;;;;7.15;2.47;;;7.80;99.90;;;;;;5045042;28;20491;-63
2023/01/08 08:43:00;;;;;;;12.10;2.60;;;7.80;99.90;;;;;;5028746;28;20049;-63
2023/01/08 08:45:26;;;;;;;7.00;2.20;;;7.80;99.90;;;;;;5043868;28;20075;-63
2023/01/08 08:47:53;;;;;;;6.60;2.67;;;7.80;99.90;;;;;;5028214;28;20411;-62
2023/01/08 08:50:19;;;;;;;10.35;2.50;;;7.80;99.90;;;;;;5045479;28;20044;-63
2023/01/08 08:52:45;;;;;;;8.55;2.28;;;7.90;99.90;;;;;;5027514;28;20037;-63
2023/01/08 08:55:17;;;;;;;7.38;2.60;;;7.90;99.90;;;;;;5045645;28;20307;-63
2023/01/08 08:57:44;;;;;;;11.05;2.95;;;7.90;99.90;;;;;;5044688;28;20041;-63
2023/01/08 09:00:13;;;;;;;11.73;3.00;;;7.90;99.90;;;;;;5046003;28;20120;-63
2023/01/08 09:02:39;;;;;;;8.57;2.40;;;7.90;99.90;;;;;;5042979;28;20056;-63
2023/01/08 09:05:05;;;;;;;10.63;2.03;;;8.00;99.90;;;;;;5045779;28;20478;-63
2023/01/08 09:07:31;;;;;;;10.60;2.88;;;7.90;99.90;;;;;;5043962;28;20036;-63
2023/01/08 09:09:57;;;;;;;14.98;2.58;;;8.00;99.90;;;;;;5046383;28;20514;-63
2023/01/08 09:12:23;;;;;;;13.50;2.40;;;8.00;99.90;;;;;;5028056;28;20083;-64
2023/01/08 09:14:53;;;;;;;13.18;2.45;;;8.00;99.90;;;;;;5027534;28;20053;-63
2023/01/08 09:17:20;;;;;;;11.57;2.70;;;8.00;99.90;;;;;;5046182;28;20087;-63
2023/01/08 09:19:47;;;;;;;11.10;2.50;;;8.00;99.90;;;;;;5040431;28;20060;-63
2023/01/08 09:22:12;;;;;;;8.38;2.30;;;8.10;99.90;;;;;;5028542;28;20498;-63
2023/01/08 09:24:38;;;;;;;7.72;2.58;;;8.10;99.90;;;;;;5022993;28;20037;-63
2023/01/08 09:27:04;;;;;;;8.00;1.90;;;8.10;99.90;;;;;;5027424;28;20060;-63
2023/01/08 09:29:29;;;;;;;19.20;2.33;;;8.10;99.90;;;;;;5021343;28;20080;-63
2023/01/08 09:31:58;;;;;;;12.00;2.42;;;8.20;99.90;;;;;;5035743;28;20033;-63
2023/01/08 09:34:25;;;;;;;9.32;2.20;;;8.20;99.90;;;;;;5017281;28;20052;-63
2023/01/08 09:36:51;;;;;;;8.52;2.00;;;8.20;99.90;;;;;;5009471;28;20113;-63
2023/01/08 09:39:17;;;;;;;10.48;1.55;;;8.30;99.90;;;;;;5007176;28;20428;-63
2023/01/08 09:41:46;;;;;;;7.18;2.08;;;8.30;99.90;;;;;;5039315;28;20120;-63
2023/01/08 09:44:19;;;;;;;13.25;2.50;;;8.30;99.90;;;;;;5029074;28;20056;-63
2023/01/08 09:46:47;;;;;;;12.27;1.80;;;8.40;99.90;;;;;;5037942;28;20036;-63
2023/01/08 09:49:23;;;;;;;7.00;1.77;;;8.40;99.90;;;;;;5042919;28;20464;-63
2023/01/08 09:51:49;;;;;;;8.73;1.75;;;8.40;99.90;;;;;;5043559;28;20118;-63
2023/01/08 09:54:16;;;;;;;7.85;1.73;;;8.50;99.90;;;;;;5024213;28;20123;-63
2023/01/08 09:56:43;;;;;;;11.20;1.42;;;8.50;99.90;;;;;;5042404;28;20099;-63
2023/01/08 09:59:18;;;;;;;5.72;1.08;;;8.50;99.90;;;;;;5042089;28;20084;-63
2023/01/08 10:01:46;;;;;;;8.67;1.73;;;8.50;99.90;;;;;;5043513;28;20119;-63
2023/01/08 10:04:19;;;;;;;9.30;1.73;;;8.50;99.90;;;;;;5025177;28;20045;-63
2023/01/08 10:06:55;;;;;;;11.43;1.92;;;8.60;99.90;;;;;;5042838;28;20108;-63
2023/01/08 10:09:32;;;;;;;7.40;1.23;;;8.60;99.90;;;;;;5023492;28;20061;-63
2023/01/08 10:12:03;;;;;;;5.60;1.63;;;8.60;99.90;;;;;;5044694;28;20051;-63
2023/01/08 10:14:32;;;;;;;6.38;1.92;;;8.60;99.90;;;;;;5039944;28;20168;-63
2023/01/08 10:17:25;;;;;;;5.75;1.40;;;8.70;99.90;;;;;;5022157;28;20041;-63
2023/01/08 10:19:51;;;;;;;6.05;1.23;;;8.70;99.90;;;;;;5033374;28;20045;-63
2023/01/08 10:22:24;;;;;;;10.48;1.88;;;8.70;99.90;;;;;;5045455;28;20052;-62
2023/01/08 10:24:50;;;;;;;7.18;1.17;;;8.70;99.90;;;;;;5042196;28;20041;-63
2023/01/08 10:27:22;;;;;;;9.35;1.52;;;8.80;99.90;;;;;;5027579;28;20131;-62
2023/01/08 10:29:50;;;;;;;9.40;2.38;;;8.80;99.90;;;;;;5043258;28;20551;-62
2023/01/08 10:32:27;;;;;;;9.23;1.52;;;8.80;99.90;;;;;;5045505;28;20051;-63
2023/01/08 10:34:56;;;;;;;12.57;1.88;;;8.90;99.90;;;;;;5043357;28;20190;-63
2023/01/08 10:37:30;;;;;;;6.95;1.20;;;8.90;99.90;;;;;;5045025;28;20041;-62
2023/01/08 10:40:07;;;;;;;5.22;1.20;;;8.90;99.90;;;;;;5030167;28;20131;-62
2023/01/08 10:42:34;;;;;;;12.68;1.60;;;8.90;99.90;;;;;;5030433;28;20048;-63
2023/01/08 10:45:06;;;;;;;5.35;1.02;;;9.00;99.90;;;;;;5048655;28;20040;-63
2023/01/08 10:47:34;;;;;;;13.48;1.48;;;9.00;99.90;;;;;;5048993;28;20037;-63
2023/01/08 10:50:04;;;;;;;8.50;3.00;;;9.10;99.90;;;;;;5048220;28;20116;-63
2023/01/08 10:52:32;;;;;;;7.53;1.17;;;9.10;99.90;;;;;;5044390;28;20045;-63
2023/01/08 10:55:12;;;;;;;3.92;0.93;;;9.10;99.90;;;;;;5047733;28;20040;-63
2023/01/08 10:57:41;;;;;;;;;;;9.10;99.90;;;;;;5043723;28;20044;-63
2023/01/08 11:00:25;;;;;;;8.65;1.17;;;9.10;99.90;;;;;;5042638;28;19925;-62
2023/01/08 11:02:51;;;;;;;7.43;1.77;;;9.30;99.90;;;;;;5028604;28;20041;-63
2023/01/08 11:05:17;;;;;;;8.70;1.73;;;9.30;99.90;;;;;;5028842;28;20049;-63
2023/01/08 11:07:50;;;;;;;9.85;1.48;;;9.30;99.90;;;;;;5047449;28;20033;-63
2023/01/08 11:10:22;;;;;;;3.38;1.05;;;9.40;99.90;;;;;;5045877;28;20151;-63
2023/01/08 11:12:58;;;;;;;9.32;1.45;;;9.40;99.90;;;;;;5030050;28;20049;-63
2023/01/08 11:15:42;;;;;;;12.30;2.45;;;9.40;99.90;;;;;;5048934;28;20137;-63
2023/01/08 11:18:23;;;;;;;11.07;1.92;;;9.40;99.90;;;;;;5047137;28;20572;-63
2023/01/08 11:20:50;;;;;;;10.70;1.40;;;9.40;99.90;;;;;;5048211;28;20045;-63
2023/01/08 11:23:19;;;;;;;9.65;1.70;;;9.40;99.90;;;;;;5047753;28;20053;-63
2023/01/08 11:26:06;;;;;;;9.23;1.48;;;9.40;99.90;;;;;;5048251;28;20368;-63
2023/01/08 11:28:53;;;;;;;9.65;1.73;;;9.50;99.90;;;;;;5034774;28;20153;-63
2023/01/08 11:31:32;;;;;;;7.75;1.35;;;9.40;99.90;;;;;;5047813;28;20076;-62
2023/01/08 11:34:11;;;;;;;14.75;2.13;;;9.40;99.90;;;;;;5028712;28;20119;-63
2023/01/08 11:36:47;;;;;;;12.95;1.50;;;9.40;99.90;;;;;;5048549;28;20453;-63
2023/01/08 11:39:13;;;;;;;12.10;2.15;;;9.40;99.90;;;;;;5026859;28;20041;-63
2023/01/08 11:41:57;;;;;;;13.70;2.30;;;9.40;99.90;;;;;;5046131;28;20478;-62
2023/01/08 11:44:50;;;;;;;3.63;1.27;;;9.50;99.90;;;;;;5028671;28;20521;-63
2023/01/08 11:47:31;;;;;;;13.40;1.98;;;9.60;99.90;;;;;;5037028;28;20450;-63
2023/01/08 11:50:12;;;;;;;13.13;2.00;;;9.70;99.90;;;;;;5039865;28;20045;-62
2023/01/08 11:52:49;;;;;;;20.77;2.20;;;9.80;99.90;;;;;;5042004;28;20048;-63
2023/01/08 11:55:30;;;;;;;11.05;2.95;;;9.90;99.90;;;;;;5041853;28;20052;-63
2023/01/08 11:58:26;;;;;;;11.77;2.00;;;9.90;99.90;;;;;;5039531;28;20131;-62
2023/01/08 12:00:58;;;;;;;16.00;2.15;;;9.80;99.90;;;;;;5033773;28;20037;-63
2023/01/08 12:03:48;;;;;;;22.85;2.17;;;9.80;99.90;;;;;;5046545;28;20051;-63
2023/01/08 12:06:22;;;;;;;3.83;0.90;;;9.70;99.90;;;;;;5042684;28;20119;-62
2023/01/08 12:08:57;;;;;;;14.43;3.45;;;9.60;99.90;;;;;;5021387;28;20517;-62
2023/01/08 12:11:29;;;;;;;10.63;2.08;;;9.60;99.90;;;;;;5047214;28;20574;-62
2023/01/08 12:14:32;;;;;;;14.73;2.20;;;9.60;99.90;;;;;;5037175;28;20077;-62
2023/01/08 12:17:07;;;;;;;14.52;2.53;;;9.60;99.90;;;;;;5024433;28;20135;-62
2023/01/08 12:19:49;;;;;;;9.23;1.92;;;9.60;99.90;;;;;;5026119;28;20084;-62
2023/01/08 12:22:33;;;;;;;12.50;2.45;;;9.60;99.90;;;;;;5004275;28;20045;-62
2023/01/08 12:25:38;;;;;;;9.18;1.67;;;9.60;99.90;;;;;;5035901;28;20033;-62
2023/01/08 12:28:27;;;;;;;8.90;1.73;;;9.50;99.90;;;;;;4984986;28;20048;-63
2023/01/08 12:31:02;;;;;;;17.10;2.40;;;9.50;99.90;;;;;;4987754;28;20061;-62
2023/01/08 12:33:40;;;;;;;13.30;2.13;;;9.50;99.90;;;;;;5029516;28;20044;-62
2023/01/08 12:36:16;;;;;;;12.68;2.20;;;9.50;99.90;;;;;;5044029;28;20041;-63
2023/01/08 12:38:43;;;;;;;8.30;1.27;;;9.50;99.90;;;;;;5046397;28;20068;-62
2023/01/08 12:41:17;;;;;;;12.75;2.17;;;9.60;99.90;;;;;;5046431;28;20110;-62
2023/01/08 12:43:58;;;;;;;12.02;2.05;;;9.60;99.90;;;;;;5025916;28;20487;-62
2023/01/08 12:46:29;;;;;;;15.38;2.75;;;9.60;99.90;;;;;;5045340;28;20129;-62
2023/01/08 12:48:56;;;;;;;11.50;2.17;;;9.60;99.90;;;;;;5046335;28;20417;-62
2023/01/08 12:51:35;;;;;;;13.80;3.00;;;9.60;99.90;;;;;;5011490;28;20087;-62
2023/01/08 12:54:20;;;;;;;16.73;2.28;;;9.70;99.90;;;;;;5044841;28;20041;-62
2023/01/08 12:57:06;;;;;;;20.88;2.35;;;9.70;99.90;;;;;;5044872;28;20091;-62
2023/01/08 12:59:51;;;;;;;23.38;3.63;;;9.80;99.90;;;;;;5044831;28;20053;-62
2023/01/08 13:02:51;;;;;;;11.23;1.85;;;9.90;99.90;;;;;;5044661;28;20068;-62
2023/01/08 13:05:19;;;;;;;9.93;2.10;;;10.00;99.90;;;;;;5009238;28;20055;-62
2023/01/08 13:07:52;;;;;;;10.85;2.00;;;9.80;99.90;;;;;;5039525;28;20037;-62
2023/01/08 13:10:39;;;;;;;12.50;2.17;;;9.90;99.90;;;;;;5031141;28;20049;-62